Temperatura - Umidità - Pioggia orarie del 25-03-2019

Intensità - Direzione vento orarie del 25-03-2019 °C

Dati orari da stazione meteo del 25-03-2019

Nome Stazione Data Ora Temperatura [°C] Umidità [%] Pioggia [mm] Intensità vento[m/s] Direzione vento [°]
Savigliano 24-03-2019 01:00 5.4 65.9 0 0.3 31
Savigliano 24-03-2019 02:00 4.5 71.1 0 0.2 31
Savigliano 24-03-2019 03:00 4.5 70.4 0 0.4 31
Savigliano 24-03-2019 04:00 3.8 72 0 0.3 31
Savigliano 24-03-2019 05:00 3.9 72.3 0 0.6 31
Savigliano 24-03-2019 06:00 3.4 72 0 0.3 31
Savigliano 24-03-2019 07:00 1.9 71.6 0 0.4 31
Savigliano 24-03-2019 08:00 4.8 66.9 0 0.5 31
Savigliano 24-03-2019 09:00 10 60.5 0 0.2 31
Savigliano 24-03-2019 10:00 15.2 47.9 0 0.2 31
Savigliano 24-03-2019 11:00 17.2 36.3 0 0.7 38
Savigliano 24-03-2019 12:00 18.7 31.3 0 0.6 37
Savigliano 24-03-2019 13:00 19.8 27.5 0 0.9 36
Savigliano 24-03-2019 14:00 20.6 26.8 0 0.9 34
Savigliano 24-03-2019 15:00 22.3 18.4 0 0.7 34
Savigliano 24-03-2019 16:00 22.2 18.3 0 0.7 36
Savigliano 24-03-2019 17:00 22.4 18.6 0 0.5 33
Savigliano 24-03-2019 18:00 22.3 23.8 0 0.6 31
Savigliano 24-03-2019 19:00 19.6 29.7 0 0.1 29
Savigliano 24-03-2019 20:00 16.9 36.2 0 0.1 29
Savigliano 24-03-2019 21:00 14.7 41.1 0 0.1 29
Savigliano 24-03-2019 22:00 12 49.6 0 0.7 30
Savigliano 24-03-2019 23:00 10.6 53.5 0 0.8 31
Savigliano 25-03-2019 00:00 8.1 59.7 0 1.1 31
Savigliano 25-03-2019 01:00 8.4 58.8 0 1.1 30
Savigliano 25-03-2019 02:00 9.5 59.1 0 1.1 165
Savigliano 25-03-2019 03:00 9.7 57 0 1.3 169
Savigliano 25-03-2019 04:00 7.7 58.4 0 1.1 167
Savigliano 25-03-2019 05:00 7 65.8 0 0.8 163
Savigliano 25-03-2019 06:00 6.9 66.2 0 0.9 170
Savigliano 25-03-2019 07:00 7.4 65.7 0 1.2 176
Savigliano 25-03-2019 08:00 7.7 66.6 0 1.6 170
Savigliano 25-03-2019 09:00 11.1 64.6 0 1.3 155
Savigliano 25-03-2019 10:00 15.1 48.9 0 0.8 131
Savigliano 25-03-2019 11:00 18.3 36.8 0 0.3 131
Savigliano 25-03-2019 12:00 18.2 35.6 0 0.8 102
Savigliano 25-03-2019 13:00 19.6 36.3 0 1 164
Savigliano 25-03-2019 14:00 19.8 35.2 0 1.1 121
Savigliano 25-03-2019 15:00 20.5 28.8 0 0.8 132
Savigliano 25-03-2019 16:00 19.8 30 0 1 35
Savigliano 25-03-2019 17:00 19.8 39.3 0 1.5 81
Savigliano 25-03-2019 18:00 18.4 44.9 0 1.3 108

Riassuntivo giornaliero del 25-03-2019